Time;durP1;ratioP1;P1;durP2;ratioP2;P2;SDS_P1;SDS_P2;PMS_P1;PMS_P2;Temp;Humidity;BMP_temperature;BMP_pressure;BME280_temperature;BME280_humidity;BME280_pressure;Samples;Min_cycle;Max_cycle;Signal;HPM_P1;HPM_P2
2021/01/28 00:01:54;;;;;;;10.30;7.93;;;;;;;0.49;78.46;99941.91;5054518;28;20218;-69
2021/01/28 00:04:19;;;;;;;10.03;7.70;;;;;;;0.45;78.61;99952.53;5056920;28;20600;-69
2021/01/28 00:06:45;;;;;;;10.27;8.27;;;;;;;0.41;78.72;99932.50;5057210;28;20168;-69
2021/01/28 00:09:10;;;;;;;10.97;8.47;;;;;;;0.50;78.83;99938.38;5055276;28;20212;-69
2021/01/28 00:11:35;;;;;;;10.60;8.40;;;;;;;0.53;78.58;99929.56;5055553;28;20192;-69
2021/01/28 00:14:00;;;;;;;9.53;8.43;;;;;;;0.51;79.11;99941.84;5037387;28;20188;-69
2021/01/28 00:16:27;;;;;;;10.50;8.47;;;;;;;0.52;79.39;99930.47;5054840;28;20195;-69
2021/01/28 00:18:52;;;;;;;11.13;9.10;;;;;;;0.36;79.98;99934.34;5054647;28;20177;-70
2021/01/28 00:21:18;;;;;;;12.40;9.60;;;;;;;0.31;80.49;99931.84;5055456;28;20181;-69
2021/01/28 00:23:43;;;;;;;11.73;9.97;;;;;;;0.25;80.91;99932.00;5054977;28;20190;-68
2021/01/28 00:26:08;;;;;;;11.07;9.17;;;;;;;0.23;81.33;99923.31;5054858;28;20174;-70
2021/01/28 00:28:34;;;;;;;14.77;9.97;;;;;;;0.34;80.78;99925.66;5054464;28;20255;-71
2021/01/28 00:30:59;;;;;;;11.87;9.80;;;;;;;0.32;81.28;99923.06;5073329;28;20179;-69
2021/01/28 00:33:25;;;;;;;11.33;9.27;;;;;;;0.26;81.67;99923.25;5056871;28;20659;-69
2021/01/28 00:35:53;;;;;;;13.27;10.60;;;;;;;0.19;82.27;99933.03;5056026;28;20180;-69
2021/01/28 00:38:28;;;;;;;12.37;9.97;;;;;;;0.15;82.60;99926.13;5070388;28;20223;-70
2021/01/28 00:40:54;;;;;;;17.20;10.63;;;;;;;0.21;82.45;99915.47;5054567;28;20563;-69
2021/01/28 00:43:19;;;;;;;13.47;10.63;;;;;;;0.22;82.99;99911.09;5056942;28;20242;-69
2021/01/28 00:45:45;;;;;;;13.40;10.43;;;;;;;0.23;82.88;99908.44;5055321;28;20172;-70
2021/01/28 00:48:11;;;;;;;15.17;11.33;;;;;;;0.10;83.49;99908.78;5056182;28;20618;-70
2021/01/28 00:50:37;;;;;;;12.97;10.90;;;;;;;0.14;83.30;99906.06;5054847;28;20168;-69
2021/01/28 00:53:03;;;;;;;14.10;10.80;;;;;;;0.11;83.86;99900.03;5054674;28;20200;-69
2021/01/28 00:55:28;;;;;;;13.30;10.67;;;;;;;0.10;83.53;99900.91;5053296;28;20175;-68
2021/01/28 00:57:54;;;;;;;15.07;11.63;;;;;;;-0.02;83.97;99902.06;5057964;28;20224;-69
2021/01/28 01:00:22;;;;;;;15.97;11.47;;;;;;;-0.11;84.35;99887.41;5054441;28;20167;-70
2021/01/28 01:02:48;;;;;;;15.57;12.07;;;;;;;-0.11;84.04;99886.56;5055718;28;20187;-69
2021/01/28 01:05:16;;;;;;;16.77;12.53;;;;;;;-0.05;84.10;99896.91;5055482;28;20198;-70
2021/01/28 01:07:42;;;;;;;14.73;11.07;;;;;;;-0.05;84.87;99875.91;5069866;28;20171;-70
2021/01/28 01:10:10;;;;;;;19.03;12.87;;;;;;;-0.09;84.69;99879.50;5053047;28;20533;-69
2021/01/28 01:12:36;;;;;;;17.17;12.43;;;;;;;-0.05;84.65;99875.91;5054355;28;20678;-69
2021/01/28 01:15:06;;;;;;;15.63;12.07;;;;;;;0.10;84.53;99870.28;5037128;28;20192;-68
2021/01/28 01:17:32;;;;;;;15.93;12.03;;;;;;;0.06;84.65;99865.16;5053810;28;20556;-69
2021/01/28 01:19:57;;;;;;;18.80;12.87;;;;;;;0.01;85.07;99870.53;5053405;28;20183;-69
2021/01/28 01:22:22;;;;;;;15.43;12.43;;;;;;;0.19;84.07;99869.19;5053380;28;20540;-70
2021/01/28 01:24:47;;;;;;;16.40;12.77;;;;;;;0.15;84.51;99862.31;5053632;28;20182;-70
2021/01/28 01:27:13;;;;;;;15.03;11.77;;;;;;;0.16;83.89;99869.28;5054157;28;20176;-70
2021/01/28 01:29:38;;;;;;;15.10;12.27;;;;;;;0.19;84.07;99861.31;5053937;28;20179;-70
2021/01/28 01:32:03;;;;;;;16.27;11.50;;;;;;;0.17;84.49;99855.25;5053774;28;20202;-69
2021/01/28 01:34:29;;;;;;;16.53;12.30;;;;;;;0.12;84.27;99852.75;5052338;28;20189;-70
2021/01/28 01:36:54;;;;;;;15.47;12.00;;;;;;;0.20;83.79;99848.16;5053424;28;20199;-70
2021/01/28 01:39:19;;;;;;;15.53;11.73;;;;;;;0.20;83.81;99852.53;5051672;28;20183;-70
2021/01/28 01:41:45;;;;;;;18.37;12.30;;;;;;;0.11;84.78;99843.16;5053455;28;20699;-68
2021/01/28 01:44:10;;;;;;;15.07;11.53;;;;;;;0.18;84.65;99838.59;5053377;28;20172;-68
2021/01/28 01:46:36;;;;;;;15.40;12.07;;;;;;;0.29;83.95;99850.53;5053403;28;20182;-67
2021/01/28 01:49:05;;;;;;;17.40;11.63;;;;;;;0.28;84.14;99830.44;5053313;28;20175;-68
2021/01/28 01:51:48;;;;;;;17.67;12.67;;;;;;;0.29;84.21;99833.91;5051785;28;20203;-69
2021/01/28 01:54:23;;;;;;;16.83;12.30;;;;;;;0.29;84.25;99829.53;5051864;28;20625;-68
2021/01/28 01:56:52;;;;;;;15.37;11.93;;;;;;;0.32;84.55;99812.84;5052860;28;20195;-68
2021/01/28 01:59:33;;;;;;;15.33;11.97;;;;;;;0.32;84.46;99820.72;5069087;28;20208;-69
2021/01/28 02:02:01;;;;;;;16.63;12.33;;;;;;;0.37;84.20;99825.84;5052156;28;20199;-68
2021/01/28 02:04:27;;;;;;;17.33;12.87;;;;;;;0.42;84.10;99834.47;5068615;28;20606;-68
2021/01/28 02:06:54;;;;;;;18.10;12.93;;;;;;;0.43;84.13;99804.69;5053405;28;20171;-69
2021/01/28 02:09:20;;;;;;;16.63;12.93;;;;;;;0.43;84.35;99808.19;5068873;28;20582;-69
2021/01/28 02:11:47;;;;;;;19.37;13.33;;;;;;;0.38;84.66;99801.34;5052393;28;20200;-69
2021/01/28 02:14:14;;;;;;;17.60;13.20;;;;;;;0.47;84.37;99811.56;5054150;28;20210;-69
2021/01/28 02:16:45;;;;;;;18.57;13.07;;;;;;;0.42;84.83;99808.22;5052372;28;20208;-69
2021/01/28 02:19:21;;;;;;;15.77;12.67;;;;;;;0.44;84.08;99802.03;5052678;28;20173;-69
2021/01/28 02:21:46;;;;;;;20.60;13.83;;;;;;;0.46;84.08;99794.09;5052646;28;20198;-69
2021/01/28 02:24:19;;;;;;;19.57;14.90;;;;;;;0.40;84.57;99791.66;5052929;28;20173;-69
2021/01/28 02:26:46;;;;;;;21.63;15.07;;;;;;;0.38;84.83;99796.09;5052328;28;20675;-69
2021/01/28 02:29:12;;;;;;;19.97;15.23;;;;;;;0.42;85.08;99795.94;5068780;28;20184;-69
2021/01/28 02:31:38;;;;;;;22.47;15.13;;;;;;;0.43;85.05;99795.03;5052998;28;20196;-69
2021/01/28 02:34:06;;;;;;;18.93;14.03;;;;;;;0.47;85.14;99796.69;5068745;28;20656;-71
2021/01/28 02:36:35;;;;;;;22.07;14.90;;;;;;;0.41;84.88;99794.22;5051725;28;20563;-69
2021/01/28 02:39:00;;;;;;;21.67;15.37;;;;;;;0.44;85.38;99785.41;5035453;28;20171;-69
2021/01/28 02:41:26;;;;;;;22.70;15.53;;;;;;;0.44;85.27;99795.91;5053012;28;20711;-69
2021/01/28 02:43:52;;;;;;;22.73;16.07;;;;;;;0.46;84.81;99792.34;5053150;28;20183;-69
2021/01/28 02:46:20;;;;;;;19.30;14.00;;;;;;;0.50;84.93;99795.72;5052179;28;20194;-70
2021/01/28 02:48:49;;;;;;;21.87;15.80;;;;;;;0.45;85.21;99792.38;5053546;28;20599;-70
2021/01/28 02:51:14;;;;;;;23.20;16.00;;;;;;;0.46;85.43;99791.47;5053842;28;20176;-69
2021/01/28 02:53:42;;;;;;;25.13;16.77;;;;;;;0.50;85.60;99777.34;5055619;28;20181;-69
2021/01/28 02:56:08;;;;;;;23.13;16.00;;;;;;;0.56;84.70;99785.03;5055776;28;20181;-69
2021/01/28 02:58:34;;;;;;;20.87;15.37;;;;;;;0.54;85.07;99778.97;5055618;28;20269;-69
2021/01/28 03:00:59;;;;;;;21.60;14.77;;;;;;;0.49;85.44;99776.50;5056411;28;20183;-69
2021/01/28 03:03:25;;;;;;;21.00;14.70;;;;;;;0.52;85.45;99775.53;5056878;28;20196;-69
2021/01/28 03:05:50;;;;;;;24.77;15.60;;;;;;;0.51;85.72;99779.06;5054996;28;20555;-69
2021/01/28 03:08:17;;;;;;;22.80;14.70;;;;;;;0.50;85.82;99774.72;5056562;28;20171;-69
2021/01/28 03:10:42;;;;;;;22.23;15.20;;;;;;;0.53;85.51;99774.63;5056090;28;20193;-67
2021/01/28 03:13:10;;;;;;;23.43;15.93;;;;;;;0.55;85.97;99780.69;5055855;28;20275;-69
2021/01/28 03:15:35;;;;;;;25.00;14.70;;;;;;;0.61;85.53;99783.16;5054423;28;20180;-69
2021/01/28 03:18:00;;;;;;;25.27;15.50;;;;;;;0.54;85.64;99786.84;5054314;28;20206;-69
2021/01/28 03:20:25;;;;;;;24.07;14.67;;;;;;;0.51;86.34;99790.44;5055746;28;20582;-68
2021/01/28 03:22:51;;;;;;;26.33;15.93;;;;;;;0.50;86.59;99796.59;5055623;28;20200;-69
2021/01/28 03:25:19;;;;;;;23.93;15.00;;;;;;;0.64;86.23;99783.06;5054550;28;20179;-67
2021/01/28 03:27:44;;;;;;;24.63;15.97;;;;;;;0.62;85.88;99779.63;5055012;28;20172;-69
2021/01/28 03:30:16;;;;;;;24.00;14.97;;;;;;;0.64;86.47;99769.91;5055760;28;20184;-70
2021/01/28 03:32:42;;;;;;;27.47;14.90;;;;;;;0.65;86.08;99776.91;5055627;28;20208;-69
2021/01/28 03:35:08;;;;;;;25.10;14.63;;;;;;;0.69;85.88;99780.28;5054919;28;20175;-70
2021/01/28 03:37:33;;;;;;;21.17;13.33;;;;;;;0.68;86.42;99789.06;5054706;28;20208;-70
2021/01/28 03:39:58;;;;;;;24.63;15.30;;;;;;;0.69;86.34;99775.91;5056128;28;20259;-70
2021/01/28 03:42:24;;;;;;;25.30;14.87;;;;;;;0.73;85.95;99782.78;5055473;28;20679;-69
2021/01/28 03:44:49;;;;;;;22.93;13.93;;;;;;;0.74;86.27;99786.25;5054743;28;20184;-70
2021/01/28 03:47:15;;;;;;;25.30;14.47;;;;;;;0.71;86.19;99786.34;5055246;28;20175;-70
2021/01/28 03:49:40;;;;;;;25.47;15.20;;;;;;;0.72;85.79;99772.31;5054993;28;20226;-69
2021/01/28 03:52:05;;;;;;;23.30;14.17;;;;;;;0.75;86.01;99780.13;5055301;28;20302;-68
2021/01/28 03:54:30;;;;;;;23.03;14.07;;;;;;;0.81;85.50;99775.56;5054894;28;20535;-68
2021/01/28 03:56:56;;;;;;;25.73;14.70;;;;;;;0.75;85.84;99773.13;5054883;28;20196;-68
2021/01/28 03:59:21;;;;;;;26.87;15.23;;;;;;;0.77;86.23;99773.94;5055455;28;20235;-68
2021/01/28 04:01:46;;;;;;;23.50;14.30;;;;;;;0.72;86.35;99770.56;5053238;28;20208;-68
2021/01/28 04:04:12;;;;;;;24.63;14.67;;;;;;;0.71;86.02;99766.19;5054969;28;20172;-68
2021/01/28 04:06:37;;;;;;;25.57;14.10;;;;;;;0.71;86.37;99763.56;5054885;28;20178;-68
2021/01/28 04:09:02;;;;;;;25.43;14.83;;;;;;;0.68;86.17;99763.66;5055297;28;20246;-68
2021/01/28 04:11:28;;;;;;;27.07;14.63;;;;;;;0.69;86.51;99760.13;5054993;28;20288;-68
2021/01/28 04:13:53;;;;;;;28.47;16.37;;;;;;;0.74;86.33;99778.38;5054747;28;20591;-68
2021/01/28 04:16:18;;;;;;;27.90;15.73;;;;;;;0.70;86.16;99768.88;5054414;28;20175;-67
2021/01/28 04:18:43;;;;;;;29.37;16.17;;;;;;;0.67;86.07;99775.09;5055515;28;20260;-68
2021/01/28 04:21:09;;;;;;;29.20;16.63;;;;;;;0.60;86.23;99776.16;5054919;28;20191;-68
2021/01/28 04:23:34;;;;;;;28.30;14.60;;;;;;;0.60;86.03;99768.28;5055635;28;20204;-69
2021/01/28 04:25:59;;;;;;;24.47;13.43;;;;;;;0.62;85.97;99759.47;5055934;28;20184;-68
2021/01/28 04:28:24;;;;;;;24.47;13.83;;;;;;;0.67;86.12;99759.31;5053750;28;20172;-70
2021/01/28 04:30:50;;;;;;;23.80;13.10;;;;;;;0.73;86.01;99793.28;5054615;28;20202;-69
2021/01/28 04:33:15;;;;;;;26.83;14.63;;;;;;;0.65;85.65;99770.78;5054464;28;20673;-68
2021/01/28 04:35:40;;;;;;;25.70;14.33;;;;;;;0.69;86.03;99760.13;5053279;28;20171;-69
2021/01/28 04:38:06;;;;;;;24.57;14.70;;;;;;;0.67;85.73;99761.94;5054531;28;20575;-69
2021/01/28 04:40:42;;;;;;;24.40;14.97;;;;;;;0.66;85.52;99768.09;5054606;28;20176;-69
2021/01/28 04:43:22;;;;;;;28.53;15.23;;;;;;;0.61;86.02;99762.13;5053147;28;20209;-69
2021/01/28 04:45:49;;;;;;;26.60;14.30;;;;;;;0.66;85.51;99764.63;5054105;28;20539;-69
2021/01/28 04:48:15;;;;;;;25.23;13.37;;;;;;;0.65;84.98;99757.66;5072508;28;20174;-69
2021/01/28 04:50:41;;;;;;;22.43;14.00;;;;;;;0.63;84.90;99755.94;5070008;28;20175;-69
2021/01/28 04:53:31;;;;;;;25.20;13.90;;;;;;;0.60;84.84;99749.91;5054732;28;20192;-69
2021/01/28 04:55:57;;;;;;;25.50;14.70;;;;;;;0.57;85.16;99745.63;5052729;28;20164;-69
2021/01/28 04:58:22;;;;;;;25.37;15.00;;;;;;;0.59;85.33;99748.19;5052745;28;20668;-69
2021/01/28 05:00:48;;;;;;;26.30;14.40;;;;;;;0.63;85.16;99752.44;5052794;28;20175;-69
2021/01/28 05:03:22;;;;;;;24.07;13.77;;;;;;;0.60;84.91;99749.91;5053737;28;20198;-71
2021/01/28 05:05:50;;;;;;;22.50;13.20;;;;;;;0.62;84.92;99745.47;5052876;28;20175;-69
2021/01/28 05:08:16;;;;;;;24.37;14.60;;;;;;;0.62;84.28;99748.09;5069192;28;20198;-69
2021/01/28 05:10:44;;;;;;;22.87;13.60;;;;;;;0.63;84.50;99749.81;5053757;28;20175;-68
2021/01/28 05:13:10;;;;;;;20.77;13.33;;;;;;;0.63;84.18;99749.81;5052942;28;20687;-68
2021/01/28 05:15:39;;;;;;;21.80;13.13;;;;;;;0.60;83.94;99745.53;5054059;28;20171;-69
2021/01/28 05:18:10;;;;;;;20.60;13.07;;;;;;;0.57;84.20;99750.88;5053468;28;20347;-69
2021/01/28 05:20:36;;;;;;;22.50;12.87;;;;;;;0.60;83.41;99749.91;5053720;28;20677;-68
2021/01/28 05:23:04;;;;;;;19.53;12.27;;;;;;;0.60;83.51;99747.28;5053308;28;20664;-68
2021/01/28 05:25:34;;;;;;;21.43;12.73;;;;;;;0.54;84.05;99740.47;5052968;28;20182;-69
2021/01/28 05:28:15;;;;;;;19.17;11.77;;;;;;;0.49;84.13;99744.97;5053412;28;20234;-69
2021/01/28 05:30:43;;;;;;;21.90;12.07;;;;;;;0.44;84.27;99736.38;5069188;28;20617;-69
2021/01/28 05:33:27;;;;;;;19.07;12.37;;;;;;;0.47;83.98;99740.69;5053151;28;20560;-69
2021/01/28 05:36:10;;;;;;;22.23;12.57;;;;;;;0.49;83.46;99742.34;5053069;28;20164;-70
2021/01/28 05:38:55;;;;;;;25.13;14.23;;;;;;;0.43;83.94;99745.16;5052452;28;20201;-69
2021/01/28 05:43:56;;;;;;;24.20;14.73;;;;;;;0.40;84.17;99747.03;5074387;22;20694;-67
2021/01/28 05:46:27;;;;;;;28.67;14.90;;;;;;;0.39;83.88;99742.69;5051733;28;20179;-67
2021/01/28 05:49:03;;;;;;;25.03;14.20;;;;;;;0.38;83.81;99749.69;5035105;28;20254;-67
2021/01/28 05:51:44;;;;;;;23.47;13.70;;;;;;;0.42;82.96;99742.59;5034899;28;20175;-67
2021/01/28 05:54:26;;;;;;;22.60;12.73;;;;;;;0.37;83.81;99747.09;5015815;28;20192;-67
2021/01/28 05:57:06;;;;;;;22.30;13.73;;;;;;;0.27;84.33;99749.97;5031669;28;20198;-67
2021/01/28 05:59:46;;;;;;;19.03;10.87;;;;;;;0.27;83.18;99752.59;5031489;28;20251;-67
2021/01/28 06:02:25;;;;;;;19.57;10.73;;;;;;;0.24;83.58;99755.31;5033171;28;20211;-67
2021/01/28 06:05:00;;;;;;;22.10;11.53;;;;;;;0.25;82.92;99764.91;5031830;28;20165;-68
2021/01/28 06:07:51;;;;;;;18.63;10.87;;;;;;;0.23;82.96;99764.09;5031500;28;20211;-68
2021/01/28 06:10:30;;;;;;;17.03;10.73;;;;;;;0.23;83.18;99769.34;5031274;28;20173;-68
2021/01/28 06:13:30;;;;;;;19.97;11.53;;;;;;;0.24;82.58;99757.94;5031380;28;20696;-68
2021/01/28 06:16:12;;;;;;;14.10;9.10;;;;;;;0.26;80.63;99752.66;5031437;28;20157;-68
2021/01/28 06:19:10;;;;;;;12.70;8.80;;;;;;;0.28;80.30;99774.47;5031300;28;20656;-68
2021/01/28 06:21:50;;;;;;;14.03;8.60;;;;;;;0.27;80.57;99770.13;5031300;28;20165;-69
2021/01/28 06:24:21;;;;;;;12.77;8.63;;;;;;;0.43;78.42;99767.94;5031379;28;20164;-69
2021/01/28 06:27:08;;;;;;;12.20;7.90;;;;;;;0.37;78.61;99768.94;5035589;28;20536;-69
2021/01/28 06:29:42;;;;;;;12.33;7.87;;;;;;;0.36;78.87;99761.09;5035361;28;20185;-69
2021/01/28 06:32:27;;;;;;;10.63;7.30;;;;;;;0.34;78.21;99762.91;5018295;28;20201;-68
2021/01/28 06:35:02;;;;;;;9.00;6.40;;;;;;;0.35;77.74;99765.50;5036318;28;20220;-68
2021/01/28 06:37:49;;;;;;;7.67;5.50;;;;;;;0.34;78.34;99774.28;5036153;28;20510;-68
2021/01/28 06:40:22;;;;;;;5.83;4.80;;;;;;;0.37;77.77;99781.22;5036118;28;20161;-68
2021/01/28 06:42:52;;;;;;;9.00;5.73;;;;;;;0.36;77.53;99782.09;5034495;28;20208;-68
2021/01/28 06:45:24;;;;;;;8.50;5.57;;;;;;;0.24;78.51;99778.06;5034557;28;20192;-68
2021/01/28 06:47:55;;;;;;;8.57;4.67;;;;;;;0.26;78.16;99778.88;5017930;28;20174;-68
2021/01/28 06:50:41;;;;;;;7.60;4.90;;;;;;;0.21;77.83;99778.16;5034658;28;20184;-68
2021/01/28 06:53:14;;;;;;;6.17;3.90;;;;;;;0.16;77.65;99777.44;5034325;28;20253;-65
2021/01/28 06:55:51;;;;;;;4.77;3.93;;;;;;;0.16;77.39;99778.28;5018138;28;20263;-64
2021/01/28 06:58:36;;;;;;;6.10;4.23;;;;;;;0.10;78.03;99783.72;5034391;28;20275;-64
2021/01/28 07:01:14;;;;;;;5.73;3.43;;;;;;;0.02;77.82;99790.06;5017860;28;20609;-64
2021/01/28 07:03:51;;;;;;;4.93;3.30;;;;;;;-0.05;77.52;99779.72;5034311;28;20564;-64
2021/01/28 07:06:29;;;;;;;4.10;3.13;;;;;;;-0.04;77.87;99783.19;5034227;28;20161;-65
2021/01/28 07:09:33;;;;;;;3.43;2.50;;;;;;;0.05;77.57;99793.47;5034066;28;20167;-65
2021/01/28 07:12:02;;;;;;;3.23;2.60;;;;;;;0.10;76.85;99791.59;5035487;28;20245;-64
2021/01/28 07:14:27;;;;;;;3.77;2.60;;;;;;;0.08;76.98;99790.75;5017604;28;20212;-63
2021/01/28 07:16:58;;;;;;;4.53;3.07;;;;;;;0.06;76.32;99784.69;5017262;28;20232;-67
2021/01/28 07:19:30;;;;;;;3.20;2.70;;;;;;;-0.07;77.04;99789.38;5034102;28;20165;-67
2021/01/28 07:21:56;;;;;;;3.93;2.90;;;;;;;-0.09;77.44;99782.47;5034144;28;20229;-67
2021/01/28 07:24:36;;;;;;;4.20;2.80;;;;;;;-0.06;77.02;99785.84;5033660;28;20629;-68
2021/01/28 07:27:04;;;;;;;2.40;2.20;;;;;;;-0.03;76.81;99784.91;5034018;28;20199;-66
2021/01/28 07:29:30;;;;;;;3.93;2.70;;;;;;;-0.06;77.11;99769.25;5017283;28;20181;-68
2021/01/28 07:31:56;;;;;;;2.40;2.20;;;;;;;-0.05;76.92;99776.22;5034954;28;20605;-67
2021/01/28 07:34:21;;;;;;;4.43;2.23;;;;;;;-0.02;76.60;99770.91;5033713;28;20215;-68
2021/01/28 07:36:50;;;;;;;4.97;2.50;;;;;;;-0.03;76.43;99771.78;5016166;28;20209;-68
2021/01/28 07:39:30;;;;;;;2.53;2.07;;;;;;;-0.02;76.70;99774.38;5034809;28;20170;-67
2021/01/28 07:41:56;;;;;;;3.13;2.07;;;;;;;-0.07;76.50;99773.66;5033153;28;20212;-67
2021/01/28 07:44:24;;;;;;;2.57;1.80;;;;;;;-0.07;75.88;99767.53;5033594;28;20180;-67
2021/01/28 07:46:50;;;;;;;4.03;1.60;;;;;;;-0.05;76.04;99763.09;5033626;28;20180;-68
2021/01/28 07:49:18;;;;;;;1.73;1.50;;;;;;;0.04;75.77;99762.03;5033655;28;20183;-67
2021/01/28 07:51:48;;;;;;;4.07;1.53;;;;;;;0.13;74.92;99769.66;5033633;28;20176;-67
2021/01/28 07:54:22;;;;;;;4.73;1.27;;;;;;;0.21;74.32;99768.53;5033256;28;20180;-68
2021/01/28 07:57:08;;;;;;;2.10;1.30;;;;;;;0.26;74.04;99761.38;5033101;28;20229;-67
2021/01/28 07:59:52;;;;;;;2.40;1.43;;;;;;;0.21;74.16;99758.03;5033604;28;20200;-68
2021/01/28 08:02:19;;;;;;;2.57;1.80;;;;;;;0.17;74.21;99766.88;5033187;28;20616;-67
2021/01/28 08:04:53;;;;;;;1.80;1.40;;;;;;;0.18;74.08;99767.75;5032964;28;20180;-66
2021/01/28 08:07:28;;;;;;;3.43;1.23;;;;;;;0.16;74.48;99754.66;5033591;28;20157;-68
2021/01/28 08:09:56;;;;;;;3.53;1.80;;;;;;;0.18;74.54;99758.13;5016930;28;20205;-68
2021/01/28 08:12:29;;;;;;;1.43;1.33;;;;;;;0.14;75.38;99760.88;5033497;28;20198;-67
2021/01/28 08:14:54;;;;;;;3.63;1.77;;;;;;;0.13;75.10;99760.00;5033335;28;20260;-68
2021/01/28 08:17:27;;;;;;;3.47;1.60;;;;;;;0.19;74.76;99762.47;5032969;28;20331;-67
2021/01/28 08:20:19;;;;;;;2.87;2.00;;;;;;;0.12;75.76;99763.53;5016379;28;20193;-68
2021/01/28 08:22:49;;;;;;;3.90;1.90;;;;;;;0.11;75.06;99767.06;5016520;28;20657;-67
2021/01/28 08:25:15;;;;;;;2.77;1.90;;;;;;;0.13;75.65;99770.50;5032722;28;20203;-68
2021/01/28 08:27:40;;;;;;;4.70;2.10;;;;;;;0.22;75.15;99759.75;5016375;28;20638;-68
2021/01/28 08:30:16;;;;;;;5.00;2.00;;;;;;;0.04;75.87;99762.88;5032772;28;20234;-68
2021/01/28 08:32:43;;;;;;;2.43;1.80;;;;;;;0.19;75.13;99751.09;5032970;28;20205;-68
2021/01/28 08:35:23;;;;;;;4.43;2.20;;;;;;;0.26;74.75;99769.25;5032808;28;20171;-68
2021/01/28 08:37:48;;;;;;;2.60;2.10;;;;;;;0.20;74.56;99765.94;5016167;28;20327;-68
2021/01/28 08:40:21;;;;;;;3.20;1.50;;;;;;;0.20;72.87;99758.06;5033989;28;20178;-68
2021/01/28 08:42:46;;;;;;;3.03;1.97;;;;;;;0.03;73.46;99762.94;5016050;28;20607;-68
2021/01/28 08:45:22;;;;;;;4.37;2.30;;;;;;;-0.01;74.00;99773.47;5032906;28;20180;-68
2021/01/28 08:47:59;;;;;;;4.70;2.50;;;;;;;0.04;73.87;99756.78;5032263;28;20176;-69
2021/01/28 08:50:27;;;;;;;2.60;2.13;;;;;;;-0.04;73.87;99760.44;5032888;28;20173;-69
2021/01/28 08:52:59;;;;;;;4.57;2.23;;;;;;;0.02;73.89;99766.47;5032254;28;20677;-68
2021/01/28 08:55:27;;;;;;;4.30;2.33;;;;;;;0.04;74.33;99757.63;5032693;28;20176;-68
2021/01/28 08:58:04;;;;;;;3.20;2.17;;;;;;;-0.05;73.56;99758.72;5015533;28;20200;-68
2021/01/28 09:00:29;;;;;;;2.77;1.63;;;;;;;-0.05;70.71;99761.34;5032306;28;20258;-67
2021/01/28 09:02:55;;;;;;;2.97;1.53;;;;;;;-0.19;70.00;99757.38;5032282;28;20602;-68
2021/01/28 09:05:26;;;;;;;2.70;1.80;;;;;;;-0.13;70.00;99763.31;5032544;28;20177;-69
2021/01/28 09:07:57;;;;;;;1.40;1.30;;;;;;;-0.20;68.19;99766.16;5032262;28;20168;-68
2021/01/28 09:10:27;;;;;;;2.40;1.30;;;;;;;-0.06;67.83;99774.50;5032937;28;20235;-68
2021/01/28 09:12:52;;;;;;;2.60;1.50;;;;;;;-0.07;66.76;99765.78;5033215;28;20292;-68
2021/01/28 09:15:19;;;;;;;1.40;1.17;;;;;;;-0.08;67.42;99768.44;5031868;28;20259;-68
2021/01/28 09:17:45;;;;;;;1.67;1.20;;;;;;;-0.01;66.60;99772.63;5031923;28;20254;-68
2021/01/28 09:20:30;;;;;;;2.33;1.30;;;;;;;-0.12;66.04;99769.44;5032154;28;20181;-68
2021/01/28 09:23:10;;;;;;;1.30;1.10;;;;;;;-0.04;65.39;99757.81;5032222;28;20192;-68
2021/01/28 09:25:36;;;;;;;2.80;1.40;;;;;;;-0.03;66.38;99774.41;5015031;28;20178;-69
2021/01/28 09:28:04;;;;;;;2.27;1.50;;;;;;;-0.06;66.50;99775.38;5031898;28;20268;-68
2021/01/28 09:30:33;;;;;;;2.40;1.30;;;;;;;-0.17;66.61;99782.66;5031978;28;20298;-68
2021/01/28 09:32:58;;;;;;;3.20;1.77;;;;;;;-0.05;66.80;99779.72;5015373;28;20299;-68
2021/01/28 09:35:25;;;;;;;1.83;1.37;;;;;;;0.02;66.66;99784.81;5033284;28;20637;-68
2021/01/28 09:38:13;;;;;;;2.50;1.80;;;;;;;0.02;66.63;99772.56;5031867;28;20204;-68
2021/01/28 09:40:41;;;;;;;2.37;1.60;;;;;;;-0.03;66.86;99783.16;5015343;28;20655;-68
2021/01/28 09:43:32;;;;;;;3.40;1.30;;;;;;;0.01;66.72;99785.72;5031652;28;20214;-68
2021/01/28 09:46:19;;;;;;;4.03;1.83;;;;;;;-0.05;67.30;99787.59;5015510;28;20186;-68
2021/01/28 09:48:47;;;;;;;2.53;1.37;;;;;;;-0.11;66.99;99789.50;5032292;28;20624;-68
2021/01/28 09:51:16;;;;;;;5.93;3.00;;;;;;;-0.04;66.70;99788.44;5015577;28;20215;-68
2021/01/28 09:54:01;;;;;;;5.87;3.23;;;;;;;0.02;66.50;99792.69;5032677;28;20288;-68
2021/01/28 09:56:27;;;;;;;19.27;7.47;;;;;;;-0.07;66.80;99772.78;5031591;28;20201;-68
2021/01/28 09:58:52;;;;;;;7.57;2.90;;;;;;;-0.07;66.21;99778.03;5015058;28;20239;-68
2021/01/28 10:01:17;;;;;;;9.20;3.93;;;;;;;-0.04;66.59;99770.94;5035991;28;20690;-67
2021/01/28 10:03:43;;;;;;;2.83;1.90;;;;;;;-0.07;65.69;99762.28;5018996;28;20684;-68
2021/01/28 10:06:08;;;;;;;2.70;1.90;;;;;;;-0.01;65.38;99772.63;5035728;28;20600;-68
2021/01/28 10:08:33;;;;;;;12.50;2.50;;;;;;;0.08;64.84;99763.66;5035771;28;20172;-69
2021/01/28 10:10:59;;;;;;;2.90;1.50;;;;;;;0.08;64.74;99761.91;5036632;28;20199;-68
2021/01/28 10:13:24;;;;;;;8.93;2.83;;;;;;;0.03;66.13;99763.78;5036593;28;20679;-68
2021/01/28 10:15:49;;;;;;;3.03;1.60;;;;;;;0.08;65.33;99761.03;5036939;28;20184;-68
2021/01/28 10:18:15;;;;;;;1.57;1.47;;;;;;;-0.02;66.02;99749.91;5036432;28;20192;-68
2021/01/28 10:20:42;;;;;;;5.10;1.80;;;;;;;0.14;64.73;99732.88;5036495;28;20177;-68
2021/01/28 10:23:07;;;;;;;3.13;1.73;;;;;;;0.34;63.31;99741.91;5018934;28;20201;-68
2021/01/28 10:25:33;;;;;;;2.53;1.70;;;;;;;0.37;63.64;99732.19;5035382;28;20556;-68
2021/01/28 10:27:58;;;;;;;5.87;2.30;;;;;;;0.28;63.97;99737.72;5035125;28;20632;-68
2021/01/28 10:30:24;;;;;;;2.03;1.40;;;;;;;0.22;64.47;99725.63;5035093;28;20222;-67
2021/01/28 10:32:51;;;;;;;4.13;1.60;;;;;;;0.21;65.19;99737.03;5035010;28;20215;-68
2021/01/28 10:35:28;;;;;;;5.23;1.70;;;;;;;0.22;64.28;99730.88;5035366;28;20255;-68
2021/01/28 10:37:54;;;;;;;3.13;1.50;;;;;;;0.14;65.02;99735.50;5035339;28;20652;-68
2021/01/28 10:40:20;;;;;;;1.37;1.07;;;;;;;0.07;65.76;99731.31;5035080;28;20208;-67
2021/01/28 10:42:45;;;;;;;2.80;1.40;;;;;;;0.01;65.87;99726.25;5034817;28;20208;-68
2021/01/28 10:45:20;;;;;;;4.07;1.60;;;;;;;0.25;65.25;99732.56;5034943;28;20644;-68
2021/01/28 10:47:45;;;;;;;3.07;1.50;;;;;;;0.38;64.93;99735.72;5034838;28;20195;-68
2021/01/28 10:50:12;;;;;;;3.97;1.50;;;;;;;0.16;66.23;99728.44;5034558;28;20525;-68
2021/01/28 10:52:37;;;;;;;4.40;1.47;;;;;;;0.40;65.36;99732.13;5034688;28;20212;-69
2021/01/28 10:55:05;;;;;;;1.57;1.40;;;;;;;0.42;65.89;99737.34;5034590;28;20182;-68
2021/01/28 10:57:31;;;;;;;4.63;1.50;;;;;;;0.45;65.76;99732.00;5035685;28;20193;-68
2021/01/28 10:59:56;;;;;;;1.53;1.20;;;;;;;0.62;64.95;99730.56;5034399;28;20276;-68
2021/01/28 11:02:21;;;;;;;1.90;1.27;;;;;;;0.68;65.28;99739.19;5035594;28;20204;-68
2021/01/28 11:04:47;;;;;;;2.10;1.37;;;;;;;0.71;65.50;99731.19;5034840;28;20204;-68
2021/01/28 11:07:12;;;;;;;1.50;1.07;;;;;;;0.84;64.66;99717.66;5034888;28;20173;-68
2021/01/28 11:09:37;;;;;;;2.63;1.60;;;;;;;0.71;64.70;99711.06;5036341;28;20233;-69
2021/01/28 11:12:04;;;;;;;4.30;1.60;;;;;;;0.43;65.83;99697.06;5034670;28;20202;-67
2021/01/28 11:14:29;;;;;;;1.67;1.43;;;;;;;0.67;65.15;99698.91;5035547;28;20177;-67
2021/01/28 11:16:55;;;;;;;4.10;2.00;;;;;;;0.65;63.68;99687.59;5035357;28;20203;-67
2021/01/28 11:19:20;;;;;;;2.77;1.30;;;;;;;0.65;63.00;99682.34;5034124;28;20187;-68
2021/01/28 11:21:45;;;;;;;4.40;1.30;;;;;;;0.65;61.67;99684.13;5034161;28;20521;-68
2021/01/28 11:24:12;;;;;;;4.07;1.53;;;;;;;0.52;61.61;99688.91;5033972;28;20250;-68
2021/01/28 11:26:37;;;;;;;3.17;1.17;;;;;;;0.59;61.04;99693.91;5034131;28;20175;-68
2021/01/28 11:29:04;;;;;;;3.37;1.43;;;;;;;0.25;61.10;99686.16;5035250;28;20209;-68
2021/01/28 11:31:30;;;;;;;3.53;1.17;;;;;;;0.20;61.67;99693.31;5017713;28;20654;-69
2021/01/28 11:33:56;;;;;;;5.43;1.20;;;;;;;0.01;62.33;99692.13;5034010;28;20298;-69
2021/01/28 11:36:21;;;;;;;1.57;1.10;;;;;;;0.23;61.97;99700.25;5017270;28;20594;-68
2021/01/28 11:38:46;;;;;;;2.10;1.07;;;;;;;0.40;61.26;99689.28;5033938;28;20197;-69
2021/01/28 11:41:12;;;;;;;1.23;0.90;;;;;;;0.39;61.70;99693.66;5033681;28;20190;-69
2021/01/28 11:43:37;;;;;;;4.77;1.40;;;;;;;0.40;61.44;99697.16;5034759;28;20209;-68
2021/01/28 11:46:02;;;;;;;1.83;0.97;;;;;;;0.30;61.61;99693.91;5034942;28;20189;-68